createdAt,value
2023-04-23T00:00:35.208Z,9.50
2023-04-23T00:03:10.759Z,9.63
2023-04-23T00:06:28.663Z,11.10
2023-04-23T00:09:01.490Z,7.43
2023-04-23T00:11:39.028Z,9.30
2023-04-23T00:14:10.663Z,6.53
2023-04-23T00:16:49.475Z,8.47
2023-04-23T00:19:20.226Z,6.70
2023-04-23T00:21:49.024Z,8.77
2023-04-23T00:24:19.738Z,8.80
2023-04-23T00:26:48.268Z,7.37
2023-04-23T00:29:16.649Z,10.67
2023-04-23T00:31:45.422Z,7.50
2023-04-23T00:34:13.210Z,10.37
2023-04-23T00:36:41.835Z,8.67
2023-04-23T00:39:19.325Z,6.40
2023-04-23T00:41:49.541Z,10.57
2023-04-23T00:44:18.126Z,7.93
2023-04-23T00:46:49.859Z,7.83
2023-04-23T00:49:22.654Z,8.33
2023-04-23T00:51:49.649Z,8.63
2023-04-23T00:54:26.276Z,7.60
2023-04-23T00:57:00.070Z,7.97
2023-04-23T00:59:51.010Z,6.80
2023-04-23T01:02:20.459Z,9.47
2023-04-23T01:04:51.908Z,6.00
2023-04-23T01:07:20.368Z,8.87
2023-04-23T01:09:51.343Z,6.67
2023-04-23T01:12:21.936Z,7.27
2023-04-23T01:14:51.159Z,8.77
2023-04-23T01:17:18.507Z,7.93
2023-04-23T01:19:47.632Z,8.43
2023-04-23T01:22:18.624Z,6.50
2023-04-23T01:24:50.207Z,7.43
2023-04-23T01:27:22.136Z,6.73
2023-04-23T01:29:50.616Z,6.80
2023-04-23T01:32:18.393Z,6.53
2023-04-23T01:34:49.129Z,9.30
2023-04-23T01:37:19.559Z,8.93
2023-04-23T01:39:49.574Z,8.60
2023-04-23T01:42:19.518Z,8.93
2023-04-23T01:44:49.519Z,10.30
2023-04-23T01:47:19.765Z,7.70
2023-04-23T01:49:49.010Z,8.20
2023-04-23T01:52:17.665Z,8.50
2023-04-23T01:54:45.739Z,6.90
2023-04-23T01:57:22.458Z,7.50
2023-04-23T01:59:53.345Z,9.67
2023-04-23T02:02:22.987Z,7.20
2023-04-23T02:04:53.316Z,9.00
2023-04-23T02:07:21.811Z,8.00
2023-04-23T02:09:50.400Z,8.17
2023-04-23T02:12:20.547Z,7.23
2023-04-23T02:14:49.120Z,10.20
2023-04-23T02:17:20.128Z,7.73
2023-04-23T02:19:54.244Z,8.43
2023-04-23T02:22:26.057Z,7.87
2023-04-23T02:25:04.314Z,7.83
2023-04-23T02:27:34.585Z,10.27
2023-04-23T02:30:11.213Z,7.93
2023-04-23T02:32:43.034Z,7.90
2023-04-23T02:35:18.254Z,7.87
2023-04-23T02:37:48.761Z,7.57
2023-04-23T02:40:17.018Z,10.73
2023-04-23T02:42:45.497Z,8.50
2023-04-23T02:45:14.025Z,7.07
2023-04-23T02:47:43.933Z,8.20
2023-04-23T02:50:20.848Z,7.50
2023-04-23T02:52:50.796Z,8.07
2023-04-23T02:55:22.030Z,7.30
2023-04-23T02:57:58.693Z,10.30
2023-04-23T03:00:30.034Z,8.57
2023-04-23T03:02:58.622Z,9.30
2023-04-23T03:05:30.004Z,7.20
2023-04-23T03:08:00.806Z,7.93
2023-04-23T03:13:14.465Z,8.93
2023-04-23T03:15:51.233Z,6.70
2023-04-23T03:18:21.215Z,8.07
2023-04-23T03:20:50.477Z,8.13
2023-04-23T03:23:18.879Z,10.37
2023-04-23T03:25:46.935Z,7.23
2023-04-23T03:28:15.215Z,7.50
2023-04-23T03:30:42.819Z,7.47
2023-04-23T03:33:14.710Z,9.17
2023-04-23T03:35:52.241Z,7.87
2023-04-23T03:38:19.320Z,8.07
2023-04-23T03:40:48.205Z,7.13
2023-04-23T03:43:15.649Z,9.80
2023-04-23T03:45:47.410Z,8.13
2023-04-23T03:48:14.597Z,11.83
2023-04-23T03:50:48.080Z,10.57
2023-04-23T03:53:25.028Z,10.03
2023-04-23T03:55:53.427Z,7.40
2023-04-23T03:58:23.618Z,8.17
2023-04-23T04:01:01.326Z,10.27
2023-04-23T04:03:29.666Z,8.50
2023-04-23T04:05:58.074Z,10.47
2023-04-23T04:08:26.930Z,7.70
2023-04-23T04:10:59.608Z,7.60
2023-04-23T04:13:28.381Z,8.23
2023-04-23T04:15:59.495Z,8.43
2023-04-23T04:18:28.587Z,11.50
2023-04-23T04:20:58.546Z,8.73
2023-04-23T04:23:34.498Z,8.33
2023-04-23T04:26:05.964Z,8.30
2023-04-23T04:28:39.912Z,8.63
2023-04-23T04:31:16.458Z,7.20
2023-04-23T04:33:46.974Z,8.67
2023-04-23T04:36:17.137Z,8.27
2023-04-23T04:38:44.225Z,7.87
2023-04-23T04:41:13.403Z,8.27
2023-04-23T04:43:44.157Z,8.50
2023-04-23T04:46:13.894Z,6.63
2023-04-23T04:48:42.253Z,9.17
2023-04-23T04:51:12.658Z,8.47
2023-04-23T04:53:41.068Z,6.73
2023-04-23T04:56:18.143Z,8.50
2023-04-23T04:58:49.162Z,9.03
2023-04-23T05:01:19.123Z,8.20
2023-04-23T05:03:49.571Z,6.13
2023-04-23T05:06:19.675Z,7.72
2023-04-23T05:08:50.478Z,6.70
2023-04-23T05:11:25.590Z,7.35
2023-04-23T05:13:55.608Z,7.35
2023-04-23T05:16:25.026Z,7.57
2023-04-23T05:18:54.870Z,8.05
2023-04-23T05:21:23.228Z,7.75
2023-04-23T05:23:52.166Z,9.57
2023-04-23T05:26:23.693Z,6.47
2023-04-23T05:28:52.062Z,7.30
2023-04-23T05:31:29.287Z,8.23
2023-04-23T05:33:58.667Z,6.60
2023-04-23T05:36:30.934Z,7.38
2023-04-23T05:39:00.486Z,7.17
2023-04-23T05:41:28.930Z,6.68
2023-04-23T05:43:59.387Z,7.15
2023-04-23T05:46:28.827Z,7.45
2023-04-23T05:48:59.081Z,6.40
2023-04-23T05:51:30.872Z,5.88
2023-04-23T05:54:01.304Z,6.07
2023-04-23T05:56:29.810Z,6.38
2023-04-23T05:59:01.322Z,5.88
2023-04-23T06:01:31.626Z,6.07
2023-04-23T06:04:02.951Z,5.82
2023-04-23T06:06:33.373Z,6.38
2023-04-23T06:09:00.882Z,5.95
2023-04-23T06:11:31.984Z,6.10
2023-04-23T06:13:59.990Z,6.57
2023-04-23T06:16:48.652Z,6.07
2023-04-23T06:19:19.670Z,7.85
2023-04-23T06:21:51.237Z,5.63
2023-04-23T06:24:19.719Z,6.75
2023-04-23T06:26:49.141Z,5.93
2023-04-23T06:29:18.163Z,5.47
2023-04-23T06:31:46.870Z,5.03
2023-04-23T06:34:17.628Z,5.88
2023-04-23T06:36:46.264Z,6.32
2023-04-23T06:39:17.419Z,5.43
2023-04-23T06:41:45.709Z,7.40
2023-04-23T06:44:15.318Z,5.57
2023-04-23T06:46:45.168Z,5.97
2023-04-23T06:49:12.439Z,6.80
2023-04-23T06:51:41.399Z,5.95
2023-04-23T06:54:11.180Z,5.72
2023-04-23T06:56:40.038Z,6.35
2023-04-23T06:59:08.821Z,6.10
2023-04-23T07:01:37.292Z,10.30
2023-04-23T07:04:05.120Z,7.22
2023-04-23T07:06:36.994Z,6.20
2023-04-23T07:09:05.609Z,6.75
2023-04-23T07:11:42.372Z,8.07
2023-04-23T07:14:09.528Z,7.18
2023-04-23T07:16:38.053Z,6.65
2023-04-23T07:19:07.547Z,8.13
2023-04-23T07:21:38.632Z,7.80
2023-04-23T07:24:08.331Z,7.78
2023-04-23T07:26:40.376Z,6.70
2023-04-23T07:29:10.639Z,8.02
2023-04-23T07:31:42.288Z,6.97
2023-04-23T07:34:14.852Z,7.13
2023-04-23T07:36:43.300Z,6.72
2023-04-23T07:39:12.352Z,7.78
2023-04-23T07:41:41.077Z,7.35
2023-04-23T07:44:09.774Z,7.07
2023-04-23T07:46:37.209Z,8.57
2023-04-23T07:49:04.362Z,8.27
2023-04-23T07:51:34.785Z,7.15
2023-04-23T07:54:05.765Z,6.78
2023-04-23T07:56:32.700Z,7.20
2023-04-23T07:59:01.438Z,7.72
2023-04-23T08:01:30.571Z,7.10
2023-04-23T08:04:02.086Z,8.35
2023-04-23T08:06:35.706Z,8.20
2023-04-23T08:09:10.106Z,8.23
2023-04-23T08:11:39.254Z,7.68
2023-04-23T08:14:07.790Z,6.18
2023-04-23T08:16:39.398Z,7.43
2023-04-23T08:19:10.806Z,7.78
2023-04-23T08:21:38.581Z,9.45
2023-04-23T08:24:08.242Z,6.93
2023-04-23T08:26:38.624Z,8.82
2023-04-23T08:29:11.528Z,7.20
2023-04-23T08:31:46.732Z,7.20
2023-04-23T08:34:15.643Z,7.28
2023-04-23T08:36:48.938Z,6.82
2023-04-23T08:39:20.540Z,7.53
2023-04-23T08:41:55.253Z,7.43
2023-04-23T08:44:28.784Z,8.07
2023-04-23T08:46:59.890Z,9.43
2023-04-23T08:49:39.313Z,6.80
2023-04-23T08:52:25.993Z,6.95
2023-04-23T08:54:57.778Z,7.47
2023-04-23T08:57:25.664Z,7.95
2023-04-23T08:59:55.636Z,8.55
2023-04-23T09:02:25.247Z,7.93
2023-04-23T09:05:05.732Z,7.95
2023-04-23T09:07:47.921Z,7.63
2023-04-23T09:10:18.406Z,6.63
2023-04-23T09:12:49.079Z,6.28
2023-04-23T09:15:17.582Z,7.03
2023-04-23T09:17:53.637Z,6.78
2023-04-23T09:20:22.860Z,8.93
2023-04-23T09:23:02.270Z,7.47
2023-04-23T09:25:31.837Z,5.93
2023-04-23T09:28:07.019Z,6.15
2023-04-23T09:30:50.901Z,5.72
2023-04-23T09:33:21.509Z,6.30
2023-04-23T09:35:56.321Z,5.93
2023-04-23T09:38:27.970Z,5.85
2023-04-23T09:40:58.189Z,5.70
2023-04-23T09:43:30.840Z,6.32
2023-04-23T09:46:03.003Z,6.03
2023-04-23T09:48:49.424Z,5.53
2023-04-23T09:51:16.583Z,4.25
2023-04-23T09:53:49.737Z,4.40
2023-04-23T09:56:17.144Z,5.20
2023-04-23T09:58:47.764Z,4.80
2023-04-23T10:01:16.072Z,4.80
2023-04-23T10:03:52.865Z,5.15
2023-04-23T10:06:42.525Z,5.00
2023-04-23T10:09:29.940Z,5.28
2023-04-23T10:12:09.709Z,6.30
2023-04-23T10:14:51.267Z,7.78
2023-04-23T10:17:22.377Z,5.45
2023-04-23T10:19:54.618Z,5.85
2023-04-23T10:22:25.767Z,5.47
2023-04-23T10:24:59.069Z,5.57
2023-04-23T10:27:52.804Z,5.55
2023-04-23T10:30:23.511Z,5.00
2023-04-23T10:33:01.739Z,4.65
2023-04-23T10:35:38.473Z,4.95
2023-04-23T10:38:07.732Z,5.32
2023-04-23T10:40:42.303Z,4.72
2023-04-23T10:43:12.673Z,4.45
2023-04-23T10:45:42.098Z,5.47
2023-04-23T10:48:12.052Z,6.05
2023-04-23T10:50:58.354Z,4.57
2023-04-23T10:53:33.512Z,4.50
2023-04-23T10:56:10.772Z,4.50
2023-04-23T10:58:50.113Z,4.30
2023-04-23T11:01:19.707Z,3.95
2023-04-23T11:03:49.512Z,4.55
2023-04-23T11:07:09.778Z,3.97
2023-04-23T11:09:55.552Z,5.40
2023-04-23T11:12:28.473Z,4.20
2023-04-23T11:15:03.075Z,4.50
2023-04-23T11:17:40.379Z,3.95
2023-04-23T11:20:17.995Z,4.97
2023-04-23T11:22:53.400Z,4.28
2023-04-23T11:25:27.516Z,4.68
2023-04-23T11:27:59.487Z,4.60
2023-04-23T11:30:34.492Z,4.32
2023-04-23T11:33:13.702Z,3.88
2023-04-23T11:35:41.975Z,3.90
2023-04-23T11:38:12.382Z,5.03
2023-04-23T11:40:40.505Z,4.70
2023-04-23T11:43:11.055Z,5.15
2023-04-23T11:45:42.912Z,4.22
2023-04-23T11:48:13.137Z,4.47
2023-04-23T11:50:44.948Z,5.35
2023-04-23T11:53:12.532Z,4.65
2023-04-23T11:55:44.430Z,5.40
2023-04-23T11:58:12.697Z,4.78
2023-04-23T12:00:49.815Z,4.43
2023-04-23T12:03:19.980Z,4.80
2023-04-23T12:05:57.561Z,4.43
2023-04-23T12:08:33.631Z,4.60
2023-04-23T12:11:03.723Z,5.53
2023-04-23T12:13:51.202Z,4.78
2023-04-23T12:16:49.331Z,4.97
2023-04-23T12:19:34.639Z,4.28
2023-04-23T12:22:04.334Z,4.50
2023-04-23T12:24:47.098Z,4.47
2023-04-23T12:27:16.864Z,4.72
2023-04-23T12:29:48.506Z,4.38
2023-04-23T12:32:16.411Z,4.63
2023-04-23T12:34:54.533Z,4.97
2023-04-23T12:37:27.667Z,5.28
2023-04-23T12:39:57.034Z,5.43
2023-04-23T12:42:24.362Z,5.30
2023-04-23T12:44:55.776Z,4.88
2023-04-23T12:47:25.795Z,4.75
2023-04-23T12:49:59.414Z,4.38
2023-04-23T12:52:27.419Z,4.25
2023-04-23T12:55:00.754Z,4.55
2023-04-23T12:57:32.209Z,4.40
2023-04-23T13:00:03.010Z,4.68
2023-04-23T13:02:30.446Z,4.88
2023-04-23T13:12:03.184Z,4.97
2023-04-23T13:14:32.230Z,4.88
2023-04-23T13:17:03.023Z,4.53
2023-04-23T13:19:41.665Z,4.43
2023-04-23T13:22:12.365Z,4.75
2023-04-23T13:24:50.330Z,4.53
2023-04-23T13:27:20.874Z,4.20
2023-04-23T13:29:56.833Z,5.43
2023-04-23T13:32:25.361Z,4.07
2023-04-23T13:34:53.664Z,4.47
2023-04-23T17:51:58.600Z,2.90
2023-04-23T17:57:27.164Z,5.50
2023-04-23T18:00:04.363Z,5.55
2023-04-23T18:02:40.929Z,5.07
2023-04-23T18:05:18.063Z,5.82
2023-04-23T18:07:48.051Z,5.78
2023-04-23T18:10:18.222Z,4.93
2023-04-23T18:12:46.772Z,4.93
2023-04-23T18:15:15.966Z,5.33
2023-04-23T18:17:52.915Z,6.27
2023-04-23T18:20:25.161Z,6.40
2023-04-23T18:22:56.080Z,7.17
2023-04-23T18:25:26.808Z,5.97
2023-04-23T18:28:02.883Z,8.17
2023-04-23T18:30:31.271Z,9.67
2023-04-23T18:33:57.423Z,7.93
2023-04-23T18:36:34.394Z,7.73
2023-04-23T18:39:05.556Z,7.77
2023-04-23T18:41:36.409Z,7.90
2023-04-23T18:44:04.676Z,9.57
2023-04-23T18:46:33.447Z,7.87
2023-04-23T18:49:54.074Z,7.37
2023-04-23T18:52:22.871Z,8.30
2023-04-23T18:54:52.820Z,7.60
2023-04-23T18:57:23.668Z,10.00
2023-04-23T18:59:51.074Z,7.87
2023-04-23T19:02:34.559Z,11.00
2023-04-23T19:05:03.311Z,8.27
2023-04-23T19:07:38.433Z,8.10
2023-04-23T19:10:10.304Z,8.40
2023-04-23T19:12:38.826Z,8.03
2023-04-23T19:15:08.702Z,6.97
2023-04-23T19:17:43.036Z,7.37
2023-04-23T19:20:14.013Z,7.20
2023-04-23T19:22:44.185Z,7.13
2023-04-23T19:25:15.621Z,7.80
2023-04-23T19:27:43.095Z,7.73
2023-04-23T19:30:17.417Z,9.20
2023-04-23T19:32:47.337Z,7.80
2023-04-23T19:35:16.524Z,7.30
2023-04-23T19:37:45.279Z,7.87
2023-04-23T19:40:21.966Z,7.63
2023-04-23T19:42:53.456Z,8.07
2023-04-23T19:45:26.607Z,7.83
2023-04-23T19:47:56.310Z,7.10
2023-04-23T19:50:26.081Z,7.90
2023-04-23T19:52:56.649Z,7.33
2023-04-23T19:55:32.397Z,7.47
2023-04-23T19:58:00.828Z,7.57
2023-04-23T20:00:34.945Z,7.97
2023-04-23T20:03:03.756Z,6.93
2023-04-23T20:05:33.764Z,7.03
2023-04-23T20:08:10.782Z,8.73
2023-04-23T20:10:40.668Z,7.70
2023-04-23T20:13:17.216Z,8.47
2023-04-23T20:15:44.273Z,8.47
2023-04-23T20:18:13.280Z,9.10
2023-04-23T20:20:45.866Z,7.17
2023-04-23T20:23:14.668Z,7.47
2023-04-23T20:25:51.615Z,7.20
2023-04-23T20:28:18.920Z,8.63
2023-04-23T20:30:56.627Z,7.50
2023-04-23T20:33:24.873Z,8.30
2023-04-23T20:35:54.220Z,11.53
2023-04-23T20:38:25.018Z,7.67
2023-04-23T20:40:53.160Z,7.70
2023-04-23T20:43:23.026Z,7.43
2023-04-23T20:45:55.659Z,7.70
2023-04-23T20:48:27.116Z,6.73
2023-04-23T20:51:03.368Z,9.00
2023-04-23T20:53:33.320Z,6.83
2023-04-23T20:56:02.336Z,7.70
2023-04-23T20:58:40.810Z,7.50
2023-04-23T21:01:13.359Z,7.27
2023-04-23T21:03:42.096Z,6.53
2023-04-23T21:06:12.980Z,6.43
2023-04-23T21:08:43.875Z,5.87
2023-04-23T21:11:20.926Z,6.13
2023-04-23T21:13:49.547Z,6.53
2023-04-23T21:16:19.195Z,6.20
2023-04-23T21:18:53.356Z,7.17
2023-04-23T21:21:30.001Z,6.77
2023-04-23T21:24:04.278Z,6.27
2023-04-23T21:26:43.008Z,6.20
2023-04-23T21:29:21.269Z,6.00
2023-04-23T21:31:53.439Z,6.53
2023-04-23T21:34:30.614Z,7.00
2023-04-23T21:37:00.401Z,6.50
2023-04-23T21:39:32.333Z,5.90
2023-04-23T21:42:03.809Z,6.27
2023-04-23T21:44:36.699Z,6.53
2023-04-23T21:47:05.066Z,6.83
2023-04-23T21:49:46.206Z,7.53
2023-04-23T21:52:17.716Z,7.53
2023-04-23T21:54:45.005Z,8.10
2023-04-23T21:57:14.759Z,8.17
2023-04-23T21:59:51.899Z,8.17
2023-04-23T22:02:24.803Z,8.10
2023-04-23T22:04:54.272Z,7.87
2023-04-23T22:07:24.701Z,8.30
2023-04-23T22:10:01.723Z,8.13
2023-04-23T22:12:38.675Z,7.97
2023-04-23T22:15:16.653Z,8.87
2023-04-23T22:17:51.130Z,8.20
2023-04-23T22:20:26.367Z,7.57
2023-04-23T22:22:55.570Z,8.23
2023-04-23T22:25:32.850Z,9.07
2023-04-23T22:28:01.654Z,8.97
2023-04-23T22:30:31.180Z,8.80
2023-04-23T22:32:59.923Z,8.37
2023-04-23T22:35:29.763Z,10.27
2023-04-23T22:38:07.260Z,9.17
2023-04-23T22:43:27.274Z,9.90
2023-04-23T22:45:57.749Z,8.40
2023-04-23T22:48:28.435Z,8.30
2023-04-23T22:51:02.147Z,7.73
2023-04-23T22:53:40.100Z,8.13
2023-04-23T22:56:09.593Z,7.50
2023-04-23T22:58:46.169Z,6.70
2023-04-23T23:01:14.897Z,7.73
2023-04-23T23:03:51.708Z,8.10
2023-04-23T23:06:21.066Z,8.23
2023-04-23T23:08:51.207Z,8.10
2023-04-23T23:11:26.762Z,7.47
2023-04-23T23:13:54.753Z,8.03
2023-04-23T23:16:23.220Z,8.30
2023-04-23T23:18:53.823Z,7.73
2023-04-23T23:21:24.982Z,8.03
2023-04-23T23:23:55.192Z,8.47
2023-04-23T23:26:31.882Z,8.37
2023-04-23T23:29:10.860Z,8.13
2023-04-23T23:31:42.310Z,7.63
2023-04-23T23:34:19.275Z,8.33
2023-04-23T23:36:49.994Z,8.37
2023-04-23T23:39:20.760Z,7.57
2023-04-23T23:41:50.032Z,8.73
2023-04-23T23:44:18.296Z,9.10
2023-04-23T23:46:56.330Z,8.37
2023-04-23T23:49:27.310Z,8.33
2023-04-23T23:51:58.182Z,7.77
2023-04-23T23:54:30.566Z,9.17
2023-04-23T23:57:01.208Z,8.83
2023-04-23T23:59:31.460Z,9.10
